KFFL/FFL METAR and TAF weather

Enter ICAO airport designator
Station Type Date Time Source
KFFL METAR 2020/01/24 03:15 UTC NOAA

KFFL 240315Z AUTO 05007KT 1SM BR OVC003 00/00 A2991 RMK A01


Station Type Date Time Source
KFFL Decoded METAR 2020/01/24 03:15 UTC NOAA

Fair Field, IA, United States (KFFL) 41-03N 091-59W
Jan 23, 2020 - 10:15 PM EST / 2020.01.24 0315 UTC
Wind: from the NE (050 degrees) at 8 MPH (7 KT):0
Visibility: 1 mile(s):0
Sky conditions: overcast
Weather: mist
Temperature: 32 F (0 C)
Windchill: 24 F (-4 C):1
Dew Point: 32 F (0 C)
Relative Humidity: 100%
Pressure (altimeter): 29.91 in. Hg (1012 hPa)
ob: KFFL 240315Z AUTO 05007KT 1SM BR OVC003 00/00 A2991 RMK A01
cycle: 3

Station Type Date Time Source
KFFL TAF UTC NOAA

Error!

Example: see airport list